Saint Leonard, Canada
Current Conditions -  °F | °C
As of 1:54 AM on Tuesday 21 Oct 2014 (Local Time) from KCAR Reporting Station
Clear Clear  
Wind Chill: 26°   Ceiling: Unl
Heat Index: 32°   Visibility: 10mi
Dew Point: 25°   Wind: 6mph
Humidity: 75%   Direction: 270°W
Pressure: 29.95"   Gusts: NA
Location:  47.15°N, 67.83°W
Report Text: KCAR 210454Z AUTO 27005KT 10SM CLR 00/M04 A2995 RMK AO2 SLP149 T00001039 400721006
Loading
Personal Weather Stations






























Interactive Weather Map
Tropical Storm Tracking
New forecast layout! Learn more

10-Day Weather Forecast

Advertisements
Track Severe Weather on mobile